Time;durP1;ratioP1;P1;durP2;ratioP2;P2;SDS_P1;SDS_P2;PMS_P1;PMS_P2;Temp;Humidity;BMP_temperature;BMP_pressure;BME280_temperature;BME280_humidity;BME280_pressure;Samples;Min_cycle;Max_cycle;Signal;HPM_P1;HPM_P2
2024/01/24 00:01:34;;;;;;;3.50;3.20;;;11.70;99.90;;;;;;4880656;29;20091;-87
2024/01/24 00:04:00;;;;;;;4.00;3.10;;;11.80;99.90;;;;;;4916563;29;20119;-85
2024/01/24 00:06:26;;;;;;;4.03;3.20;;;11.80;99.90;;;;;;4916369;29;20059;-86
2024/01/24 00:08:52;;;;;;;5.38;2.83;;;11.80;99.90;;;;;;4900679;29;20039;-86
2024/01/24 00:11:18;;;;;;;6.32;3.10;;;11.90;99.90;;;;;;4916896;29;20056;-86
2024/01/24 00:13:44;;;;;;;3.97;2.60;;;11.90;99.90;;;;;;4901206;29;20076;-86
2024/01/24 00:16:10;;;;;;;4.43;2.63;;;11.90;99.90;;;;;;4909262;29;20368;-86
2024/01/24 00:18:36;;;;;;;6.00;2.70;;;11.90;99.90;;;;;;4915995;29;20141;-87
2024/01/24 00:21:02;;;;;;;5.13;3.33;;;12.10;99.90;;;;;;4901077;29;20128;-87
2024/01/24 00:23:27;;;;;;;2.53;2.33;;;11.90;99.90;;;;;;4915800;29;20040;-86
2024/01/24 00:25:53;;;;;;;4.07;2.60;;;12.60;99.90;;;;;;4907817;29;20097;-86
2024/01/24 00:28:21;;;;;;;4.97;2.80;;;11.90;99.90;;;;;;4881261;29;20406;-85
2024/01/24 00:30:47;;;;;;;4.38;2.58;;;12.00;99.90;;;;;;4911613;29;20103;-85
2024/01/24 00:33:15;;;;;;;3.88;2.42;;;11.90;99.90;;;;;;4901935;29;20040;-85
2024/01/24 00:35:41;;;;;;;3.00;2.13;;;12.00;99.90;;;;;;4894048;29;20036;-86
2024/01/24 00:38:06;;;;;;;3.80;2.08;;;12.00;99.90;;;;;;4895689;29;20119;-85
2024/01/24 00:40:32;;;;;;;4.60;2.28;;;12.00;99.90;;;;;;4895799;29;20417;-84
2024/01/24 00:42:58;;;;;;;5.70;2.30;;;12.00;99.90;;;;;;4893701;29;20052;-86
2024/01/24 00:45:23;;;;;;;4.35;2.08;;;12.10;99.90;;;;;;4893629;29;20494;-86
2024/01/24 00:47:49;;;;;;;2.55;1.88;;;12.10;99.90;;;;;;4876500;29;20059;-84
2024/01/24 00:50:14;;;;;;;2.67;1.90;;;12.00;99.90;;;;;;4906922;29;20048;-85
2024/01/24 00:52:40;;;;;;;3.83;1.60;;;12.10;99.90;;;;;;4908578;29;20094;-86
2024/01/24 00:55:06;;;;;;;2.22;1.73;;;12.10;99.90;;;;;;4906779;29;20044;-85
2024/01/24 00:57:31;;;;;;;2.72;1.58;;;12.10;99.90;;;;;;4909673;29;20068;-84
2024/01/24 00:59:58;;;;;;;1.55;1.40;;;12.10;99.90;;;;;;4910161;29;20068;-85
2024/01/24 01:02:23;;;;;;;3.72;1.80;;;12.10;99.90;;;;;;4895997;29;20119;-85
2024/01/24 01:04:49;;;;;;;3.58;1.52;;;12.00;99.90;;;;;;4897630;29;20593;-85
2024/01/24 01:07:15;;;;;;;2.15;1.48;;;12.00;99.90;;;;;;4880858;29;20149;-85
2024/01/24 01:09:40;;;;;;;2.67;1.50;;;12.00;99.90;;;;;;4898630;29;20371;-85
2024/01/24 01:12:06;;;;;;;1.63;1.45;;;12.00;99.90;;;;;;4900163;29;20041;-86
2024/01/24 01:14:32;;;;;;;2.83;1.60;;;12.00;99.90;;;;;;4903122;29;20040;-86
2024/01/24 01:16:57;;;;;;;4.13;1.90;;;12.00;99.90;;;;;;4886377;29;20039;-85
2024/01/24 01:19:23;;;;;;;3.28;1.52;;;11.90;99.90;;;;;;4901110;29;20115;-85
2024/01/24 01:21:48;;;;;;;1.70;1.60;;;12.00;99.90;;;;;;4920343;29;20232;-86
2024/01/24 01:24:14;;;;;;;1.58;1.30;;;11.90;99.90;;;;;;4885645;29;20040;-85
2024/01/24 01:26:40;;;;;;;2.05;1.30;;;11.90;99.90;;;;;;4917502;29;20056;-85
2024/01/24 01:29:05;;;;;;;1.23;1.10;;;11.90;99.90;;;;;;4918389;29;20096;-85
2024/01/24 01:31:31;;;;;;;1.20;1.10;;;11.90;99.90;;;;;;4899148;29;20474;-84
2024/01/24 01:33:57;;;;;;;3.40;0.98;;;11.90;99.90;;;;;;4917942;29;20158;-85
2024/01/24 01:36:22;;;;;;;2.45;1.10;;;11.90;99.90;;;;;;4903180;29;20079;-85
2024/01/24 01:38:48;;;;;;;1.10;0.70;;;11.90;99.90;;;;;;4920054;29;20036;-84
2024/01/24 01:41:14;;;;;;;0.90;0.68;;;11.90;99.90;;;;;;4901146;29;20076;-83
2024/01/24 01:43:39;;;;;;;0.68;0.57;;;11.90;99.90;;;;;;4918050;29;20048;-83
2024/01/24 01:46:14;;;;;;;1.85;0.77;;;11.90;99.90;;;;;;4916706;29;20048;-84
2024/01/24 01:48:40;;;;;;;1.08;0.90;;;11.90;99.90;;;;;;4899775;29;20402;-84
2024/01/24 01:51:06;;;;;;;0.90;0.50;;;11.90;99.90;;;;;;4917800;29;20051;-83
2024/01/24 01:53:38;;;;;;;1.50;1.00;;;12.00;99.90;;;;;;4917006;29;20043;-82
2024/01/24 01:56:07;;;;;;;0.55;0.55;;;12.00;99.90;;;;;;4900894;29;20088;-84
2024/01/24 01:58:33;;;;;;;1.02;0.50;;;12.00;99.90;;;;;;4915689;29;20123;-84
2024/01/24 02:01:00;;;;;;;0.60;0.40;;;12.00;99.90;;;;;;4886675;29;20199;-84
2024/01/24 02:03:26;;;;;;;2.03;0.60;;;12.00;99.90;;;;;;4901866;29;20048;-84
2024/01/24 02:05:51;;;;;;;0.32;0.32;;;11.90;99.90;;;;;;4916732;29;20088;-84
2024/01/24 02:08:17;;;;;;;0.30;0.30;;;12.00;99.90;;;;;;4914402;29;20074;-84
2024/01/24 02:10:43;;;;;;;0.30;0.30;;;12.00;99.90;;;;;;4901192;29;20041;-84
2024/01/24 02:13:09;;;;;;;0.40;0.40;;;12.00;99.90;;;;;;4883538;29;20510;-85
2024/01/24 02:15:34;;;;;;;2.22;0.50;;;11.90;99.90;;;;;;4915132;29;20411;-86
2024/01/24 02:18:00;;;;;;;1.70;0.40;;;11.90;99.90;;;;;;4903770;29;20410;-86
2024/01/24 02:20:28;;;;;;;1.25;0.50;;;11.80;99.90;;;;;;4907186;29;20174;-86
2024/01/24 02:22:54;;;;;;;0.82;0.50;;;11.80;99.90;;;;;;4897255;29;20108;-86
2024/01/24 02:25:20;;;;;;;0.50;0.50;;;11.90;99.90;;;;;;4884487;29;20075;-86
2024/01/24 02:27:45;;;;;;;1.33;0.57;;;12.30;99.90;;;;;;4896511;29;20518;-85
2024/01/24 02:30:11;;;;;;;0.77;0.60;;;12.20;99.90;;;;;;4904708;29;20046;-85
2024/01/24 02:32:39;;;;;;;1.08;0.68;;;11.90;99.90;;;;;;4908199;29;20495;-85
2024/01/24 02:35:05;;;;;;;1.02;0.70;;;12.40;99.90;;;;;;4911803;29;20048;-84
2024/01/24 02:37:30;;;;;;;0.52;0.52;;;11.80;99.90;;;;;;4917258;29;20063;-85
2024/01/24 02:39:56;;;;;;;0.93;0.70;;;11.90;99.90;;;;;;4919020;29;20044;-85
2024/01/24 02:42:21;;;;;;;1.85;0.80;;;12.60;99.90;;;;;;4912276;29;20466;-85
2024/01/24 02:44:47;;;;;;;2.25;1.00;;;12.60;99.90;;;;;;4914106;29;20479;-85
2024/01/24 02:47:13;;;;;;;1.25;0.60;;;11.80;99.90;;;;;;4914887;29;20123;-85
2024/01/24 02:49:39;;;;;;;1.08;0.60;;;12.00;99.90;;;;;;4914315;29;20078;-84
2024/01/24 02:52:05;;;;;;;2.97;0.73;;;11.80;99.90;;;;;;4896424;29;20059;-84
2024/01/24 02:54:31;;;;;;;1.10;0.80;;;11.90;99.90;;;;;;4910669;29;20417;-84
2024/01/24 02:56:56;;;;;;;1.42;0.88;;;11.90;99.90;;;;;;4913290;29;20052;-84
2024/01/24 02:59:22;;;;;;;3.00;1.20;;;11.80;99.90;;;;;;4893576;29;20087;-85
2024/01/24 03:01:48;;;;;;;4.15;1.58;;;11.70;99.90;;;;;;4898871;29;20178;-86
2024/01/24 03:04:13;;;;;;;3.20;1.60;;;11.80;99.90;;;;;;4899793;29;20478;-87
2024/01/24 03:06:41;;;;;;;3.53;1.40;;;12.30;99.90;;;;;;4881256;29;20052;-87
2024/01/24 03:09:07;;;;;;;5.77;1.27;;;11.60;99.90;;;;;;4882560;29;20545;-87
2024/01/24 03:11:33;;;;;;;5.38;1.50;;;11.70;99.90;;;;;;4901004;29;20383;-88
2024/01/24 03:13:58;;;;;;;7.78;1.40;;;12.50;99.90;;;;;;4898553;29;20104;-87
2024/01/24 03:16:24;;;;;;;5.68;1.52;;;11.50;99.90;;;;;;4912125;29;20041;-86
2024/01/24 03:18:51;;;;;;;4.05;1.50;;;11.50;99.90;;;;;;4899169;29;20063;-87
2024/01/24 03:21:19;;;;;;;8.73;1.58;;;11.20;99.90;;;;;;4925053;29;20048;-87
2024/01/24 03:23:45;;;;;;;8.95;1.88;;;11.60;99.90;;;;;;4880156;29;20083;-87
2024/01/24 03:26:13;;;;;;;6.95;1.58;;;11.20;99.90;;;;;;4898110;29;20078;-87
2024/01/24 03:28:38;;;;;;;;;;;11.30;99.90;;;;;;4882636;29;20497;-87
2024/01/24 03:31:04;;;;;;;13.80;1.85;;;11.30;99.90;;;;;;4881086;29;19930;-87
2024/01/24 03:33:30;;;;;;;11.27;1.95;;;11.10;99.90;;;;;;4910064;29;20143;-85
2024/01/24 03:35:55;;;;;;;6.93;1.55;;;11.20;99.90;;;;;;4913259;29;20040;-86
2024/01/24 03:38:21;;;;;;;8.30;1.70;;;11.60;99.90;;;;;;4898146;29;20355;-83
2024/01/24 03:40:47;;;;;;;7.60;1.80;;;12.00;99.90;;;;;;4912236;29;20052;-85
2024/01/24 03:43:13;;;;;;;8.20;1.73;;;11.30;99.90;;;;;;4912191;29;20114;-84
2024/01/24 03:45:39;;;;;;;5.50;1.40;;;11.20;99.90;;;;;;4913076;29;20380;-84
2024/01/24 03:48:06;;;;;;;9.02;1.52;;;11.40;99.90;;;;;;4911496;29;20043;-84
2024/01/24 03:50:32;;;;;;;6.28;1.77;;;11.20;99.90;;;;;;4899076;29;20495;-86
2024/01/24 03:53:00;;;;;;;12.20;2.08;;;11.80;99.90;;;;;;4910771;29;20043;-85
2024/01/24 03:55:28;;;;;;;9.27;1.67;;;11.20;99.90;;;;;;4879728;29;20040;-85
2024/01/24 03:57:54;;;;;;;12.05;3.15;;;11.10;99.90;;;;;;4911073;29;20079;-84
2024/01/24 04:00:20;;;;;;;10.20;1.90;;;11.00;99.90;;;;;;4910406;29;20087;-83
2024/01/24 04:02:48;;;;;;;7.35;2.30;;;;;;;;;;4910406;29;20090;-84
2024/01/24 04:05:14;;;;;;;12.55;2.72;;;;;;;;;;4899291;29;20135;-83
2024/01/24 04:07:41;;;;;;;14.55;2.40;;;;;;;;;;4911500;29;20044;-82
2024/01/24 04:10:07;;;;;;;11.45;2.13;;;;;;;;;;4914932;29;20047;-83
2024/01/24 04:12:33;;;;;;;11.30;2.40;;;;;;;;;;4911716;29;20047;-82
2024/01/24 04:14:59;;;;;;;16.02;3.22;;;;;;;;;;4911492;29;20051;-82
2024/01/24 04:17:25;;;;;;;14.52;3.20;;;;;;;;;;4913541;29;20044;-84
2024/01/24 04:19:51;;;;;;;14.85;2.92;;;;;;;;;;4913499;29;20080;-82
2024/01/24 04:22:17;;;;;;;20.67;4.25;;;;;;;;;;4913687;29;20082;-83
2024/01/24 04:24:44;;;;;;;17.42;3.83;;;;;;;;;;4916280;29;20054;-82
2024/01/24 04:27:11;;;;;;;19.98;3.55;;;;;;;;;;4896867;29;20094;-82
2024/01/24 04:29:37;;;;;;;15.93;3.55;;;;;;;;;;4915086;29;20063;-81
2024/01/24 04:32:03;;;;;;;17.08;3.70;;;;;;;;;;4898469;29;20040;-82
2024/01/24 04:34:32;;;;;;;20.73;3.88;;;;;;;;;;4916795;29;20052;-82
2024/01/24 04:37:01;;;;;;;15.40;3.55;;;;;;;;;;4885215;29;20375;-82
2024/01/24 04:39:27;;;;;;;16.27;3.50;;;;;;;;;;4898562;29;20044;-83
2024/01/24 04:41:53;;;;;;;22.50;3.50;;;;;;;;;;4898845;29;21803;-83
2024/01/24 04:44:22;;;;;;;16.08;3.67;;;;;;;;;;4910821;29;20051;-83
2024/01/24 04:46:48;;;;;;;18.65;3.60;;;;;;;;;;4902372;29;20044;-83
2024/01/24 04:49:14;;;;;;;15.82;3.55;;;;;;;;;;4901899;29;20592;-84
2024/01/24 04:51:41;;;;;;;16.67;3.33;;;;;;;;;;4900875;29;20047;-83
2024/01/24 04:54:07;;;;;;;20.23;3.40;;;;;;;;;;4884671;29;20079;-85
2024/01/24 04:56:33;;;;;;;19.92;3.88;;;;;;;;;;4900231;29;20079;-82
2024/01/24 04:58:59;;;;;;;24.77;3.92;;;;;;;;;;4919834;29;20063;-85
2024/01/24 05:01:28;;;;;;;17.92;3.85;;;;;;;;;;4918483;29;20056;-84
2024/01/24 05:03:55;;;;;;;20.92;3.55;;;;;;;;;;4919197;29;20119;-84
2024/01/24 05:06:21;;;;;;;22.17;4.47;;;;;;;;;;4902661;29;20092;-84
2024/01/24 05:08:47;;;;;;;18.83;4.07;;;;;;;;;;4914172;29;20045;-85
2024/01/24 05:11:13;;;;;;;23.73;4.25;;;;;;;;;;4918593;29;20040;-84
2024/01/24 05:13:40;;;;;;;20.08;4.15;;;;;;;;;;4897390;29;20063;-85
2024/01/24 05:16:06;;;;;;;19.05;4.03;;;;;;;;;;4912489;29;20083;-84
2024/01/24 05:18:32;;;;;;;23.08;5.00;;;;;;;;;;4914311;29;20051;-83
2024/01/24 05:20:58;;;;;;;27.02;5.05;;;;;;;;;;4913231;29;20078;-82
2024/01/24 05:23:25;;;;;;;21.92;4.93;;;;;;;;;;4882509;29;20135;-83
2024/01/24 05:25:51;;;;;;;23.85;4.75;;;;;;;;;;4915467;29;20067;-83
2024/01/24 05:28:16;;;;;;;25.48;4.70;;;11.00;99.90;;;;;;4913510;29;20040;-86
2024/01/24 05:30:42;;;;;;;21.25;4.68;;;11.00;99.90;;;;;;4909824;29;21711;-85
2024/01/24 05:33:08;;;;;;;25.02;5.30;;;10.90;99.90;;;;;;4913485;29;20138;-86
2024/01/24 05:35:33;;;;;;;25.05;5.05;;;10.80;99.90;;;;;;4910917;29;20083;-86
2024/01/24 05:37:59;;;;;;;29.25;6.07;;;10.40;99.90;;;;;;4878300;29;20048;-84
2024/01/24 05:40:25;;;;;;;29.55;5.30;;;10.60;99.90;;;;;;4914320;29;20082;-84
2024/01/24 05:42:51;;;;;;;26.00;5.97;;;10.60;99.90;;;;;;4911748;29;20074;-84
2024/01/24 05:45:16;;;;;;;26.52;5.45;;;10.50;99.90;;;;;;4911754;29;20095;-85
2024/01/24 05:47:43;;;;;;;22.88;4.88;;;10.40;99.90;;;;;;4911253;29;20407;-83
2024/01/24 05:50:13;;;;;;;25.38;5.43;;;;;;;;;;4916940;29;20127;-84
2024/01/24 05:52:46;;;;;;;31.73;5.63;;;;;;;;;;4898135;29;20151;-84
2024/01/24 05:55:13;;;;;;;26.10;5.88;;;;;;;;;;4911533;29;20395;-85
2024/01/24 05:57:39;;;;;;;27.10;5.63;;;10.40;99.90;;;;;;4914110;29;20562;-84
2024/01/24 06:00:10;;;;;;;30.27;5.85;;;7.90;99.90;;;;;;4913064;29;20100;-82
2024/01/24 06:02:36;;;;;;;31.58;5.72;;;10.20;99.90;;;;;;4910991;29;20129;-82
2024/01/24 06:05:03;;;;;;;30.25;6.35;;;10.20;99.90;;;;;;4891456;29;20103;-81
2024/01/24 06:07:29;;;;;;;28.33;6.30;;;10.10;99.90;;;;;;4914002;29;20059;-81
2024/01/24 06:09:55;;;;;;;26.58;6.18;;;10.20;99.90;;;;;;4917463;29;20040;-81
2024/01/24 06:12:20;;;;;;;31.00;6.50;;;10.10;99.90;;;;;;4916153;29;20072;-81
2024/01/24 06:14:46;;;;;;;31.88;6.60;;;10.00;99.90;;;;;;4914535;29;20048;-85
2024/01/24 06:17:11;;;;;;;31.65;5.90;;;10.00;99.90;;;;;;4918645;29;20044;-83
2024/01/24 06:19:37;;;;;;;32.28;6.55;;;10.40;99.90;;;;;;4915993;29;20072;-82
2024/01/24 06:22:03;;;;;;;31.50;6.00;;;10.30;99.90;;;;;;4900156;29;20450;-82
2024/01/24 06:24:28;;;;;;;31.33;6.60;;;9.90;99.90;;;;;;4918851;29;20044;-83
2024/01/24 06:26:54;;;;;;;32.08;6.28;;;10.00;99.90;;;;;;4898495;29;20056;-82
2024/01/24 06:29:20;;;;;;;36.05;6.35;;;10.00;99.90;;;;;;4900248;29;20680;-83
2024/01/24 06:31:46;;;;;;;30.65;6.63;;;10.00;99.90;;;;;;4901650;29;20036;-82
2024/01/24 06:34:12;;;;;;;31.23;6.18;;;10.00;99.90;;;;;;4898891;29;20051;-82
2024/01/24 06:36:38;;;;;;;34.42;7.50;;;10.00;99.90;;;;;;4896187;29;20710;-82
2024/01/24 06:39:06;;;;;;;33.42;7.07;;;10.10;99.90;;;;;;4896367;29;20407;-82
2024/01/24 06:41:32;;;;;;;34.00;6.75;;;10.00;99.90;;;;;;4898366;29;20060;-82
2024/01/24 06:43:58;;;;;;;35.63;7.28;;;10.00;99.90;;;;;;4914029;29;20043;-82
2024/01/24 06:46:26;;;;;;;28.80;6.45;;;10.10;99.90;;;;;;4912211;29;20069;-84
2024/01/24 06:48:52;;;;;;;35.10;6.55;;;10.10;99.90;;;;;;4912769;29;20083;-84
2024/01/24 06:51:18;;;;;;;32.22;6.78;;;10.00;99.90;;;;;;4914578;29;20091;-82
2024/01/24 06:53:44;;;;;;;29.30;6.18;;;10.10;99.90;;;;;;4913232;29;20435;-84
2024/01/24 06:56:10;;;;;;;32.47;6.25;;;10.00;99.90;;;;;;4894145;29;20048;-84
2024/01/24 06:58:40;;;;;;;36.78;7.22;;;10.10;99.90;;;;;;4912384;29;20048;-84
2024/01/24 07:01:06;;;;;;;33.42;7.00;;;10.10;99.90;;;;;;4895867;29;20060;-82
2024/01/24 07:03:32;;;;;;;32.42;6.78;;;10.10;99.90;;;;;;4917438;29;20139;-84
2024/01/24 07:05:58;;;;;;;29.83;6.30;;;10.00;99.90;;;;;;4912123;29;20737;-83
2024/01/24 07:08:23;;;;;;;33.10;6.55;;;10.20;99.90;;;;;;4909414;29;20142;-82
2024/01/24 07:10:49;;;;;;;28.30;6.72;;;10.20;99.90;;;;;;4913632;29;20454;-84
2024/01/24 07:13:15;;;;;;;35.50;7.22;;;10.10;99.90;;;;;;4894572;29;20566;-84
2024/01/24 07:15:42;;;;;;;35.97;7.65;;;10.20;99.90;;;;;;4906352;29;20083;-84
2024/01/24 07:18:09;;;;;;;37.92;8.02;;;10.20;99.90;;;;;;4894418;29;20040;-82
2024/01/24 07:20:35;;;;;;;40.15;6.78;;;10.20;99.90;;;;;;4913673;29;20078;-82
2024/01/24 07:23:01;;;;;;;32.40;7.07;;;10.20;99.90;;;;;;4910030;29;20080;-83
2024/01/24 07:25:27;;;;;;;32.58;7.07;;;10.10;99.90;;;;;;4918998;29;20384;-82
2024/01/24 07:27:53;;;;;;;30.90;6.57;;;10.10;99.90;;;;;;4914891;29;20048;-81
2024/01/24 07:30:19;;;;;;;32.92;6.63;;;10.20;99.90;;;;;;4910208;29;20052;-82
2024/01/24 07:32:45;;;;;;;31.20;6.75;;;10.20;99.90;;;;;;4914404;29;20047;-83
2024/01/24 07:35:11;;;;;;;39.78;8.52;;;10.20;99.90;;;;;;4912547;29;20048;-82
2024/01/24 07:37:37;;;;;;;32.55;7.07;;;10.20;99.90;;;;;;4914948;29;20040;-82
2024/01/24 07:40:03;;;;;;;38.53;7.88;;;10.20;99.90;;;;;;4910733;29;20032;-83
2024/01/24 07:42:29;;;;;;;37.17;7.30;;;10.20;99.90;;;;;;4909570;29;20051;-82
2024/01/24 07:44:55;;;;;;;35.80;7.15;;;10.10;99.90;;;;;;4893644;29;20045;-83
2024/01/24 07:47:21;;;;;;;35.08;7.32;;;10.10;99.90;;;;;;4909039;29;20099;-84
2024/01/24 07:49:46;;;;;;;37.65;7.72;;;10.10;99.90;;;;;;4908842;29;20044;-83
2024/01/24 07:52:12;;;;;;;35.45;7.88;;;10.10;99.90;;;;;;4892276;29;20044;-83
2024/01/24 07:54:38;;;;;;;30.95;6.95;;;10.10;99.90;;;;;;4907680;29;20771;-84
2024/01/24 07:57:04;;;;;;;31.20;7.25;;;10.30;99.90;;;;;;4908100;29;20041;-82
2024/01/24 07:59:30;;;;;;;29.75;6.90;;;10.10;99.90;;;;;;4911206;29;20052;-83
2024/01/24 08:01:56;;;;;;;28.65;6.95;;;10.10;99.90;;;;;;4907028;29;20146;-82
2024/01/24 08:04:21;;;;;;;30.33;7.72;;;10.10;99.90;;;;;;4909629;29;20135;-85
2024/01/24 08:06:47;;;;;;;42.00;7.45;;;10.10;99.90;;;;;;4909079;29;20119;-79
2024/01/24 08:09:13;;;;;;;34.15;7.65;;;10.10;99.90;;;;;;4901993;29;20472;-80
2024/01/24 08:11:39;;;;;;;34.72;7.15;;;10.00;99.90;;;;;;4907358;29;20076;-78
2024/01/24 08:14:05;;;;;;;31.20;7.75;;;10.00;99.90;;;;;;4907028;29;20184;-81
2024/01/24 08:16:31;;;;;;;35.00;7.05;;;10.00;99.90;;;;;;4903116;29;20418;-81
2024/01/24 08:18:58;;;;;;;37.80;7.18;;;10.10;99.90;;;;;;4908204;29;20055;-80
2024/01/24 08:21:24;;;;;;;31.55;7.05;;;10.10;99.90;;;;;;4893064;29;20050;-79
2024/01/24 08:23:50;;;;;;;32.80;6.85;;;10.10;99.90;;;;;;4912352;29;20052;-81
2024/01/24 08:26:16;;;;;;;44.47;8.40;;;10.10;99.90;;;;;;4911908;29;21496;-82
2024/01/24 08:28:45;;;;;;;35.78;8.43;;;10.10;99.90;;;;;;4890206;29;20119;-81
2024/01/24 08:31:11;;;;;;;35.75;7.15;;;10.10;99.90;;;;;;4909977;29;20443;-80
2024/01/24 08:33:37;;;;;;;36.22;7.70;;;10.10;99.90;;;;;;4897767;29;20506;-83
2024/01/24 08:36:03;;;;;;;35.50;7.43;;;10.10;99.90;;;;;;4909013;29;20044;-78
2024/01/24 08:38:30;;;;;;;37.05;7.65;;;10.10;99.90;;;;;;4909994;29;20114;-78
2024/01/24 08:40:55;;;;;;;32.90;7.32;;;10.10;99.90;;;;;;4896568;29;20048;-80
2024/01/24 08:43:21;;;;;;;34.75;7.70;;;10.10;99.90;;;;;;4913234;29;20055;-80
2024/01/24 08:45:48;;;;;;;28.83;7.47;;;10.10;99.90;;;;;;4916144;29;20123;-79
2024/01/24 08:48:14;;;;;;;33.00;7.57;;;10.10;99.90;;;;;;4904341;29;20049;-78
2024/01/24 08:50:40;;;;;;;41.13;8.18;;;10.10;99.90;;;;;;4905609;29;21256;-79
2024/01/24 08:53:05;;;;;;;34.13;8.20;;;10.10;99.90;;;;;;4902576;29;20040;-79
2024/01/24 08:55:31;;;;;;;39.65;7.75;;;10.20;99.90;;;;;;4873376;29;20044;-78
2024/01/24 08:57:57;;;;;;;32.65;7.38;;;10.20;99.90;;;;;;4903759;29;20048;-79
2024/01/24 09:00:23;;;;;;;32.88;6.88;;;10.20;99.90;;;;;;4906306;29;20059;-78
2024/01/24 09:02:48;;;;;;;37.13;7.95;;;10.20;99.90;;;;;;4901988;29;20986;-79
2024/01/24 09:05:18;;;;;;;42.70;7.53;;;10.20;99.90;;;;;;4890901;29;20606;-78
2024/01/24 09:07:44;;;;;;;37.45;7.88;;;10.20;99.90;;;;;;4906805;29;20071;-78
2024/01/24 09:10:10;;;;;;;36.55;8.02;;;10.20;99.90;;;;;;4911458;29;20131;-78
2024/01/24 09:12:36;;;;;;;40.70;7.43;;;10.20;99.90;;;;;;4913532;29;20044;-79
2024/01/24 09:15:03;;;;;;;35.70;7.00;;;10.30;99.90;;;;;;4913790;29;20047;-78
2024/01/24 09:17:29;;;;;;;33.50;7.43;;;10.30;99.90;;;;;;4912213;29;20440;-79
2024/01/24 09:19:54;;;;;;;34.65;6.40;;;10.30;99.90;;;;;;4916318;29;20047;-78
2024/01/24 09:22:20;;;;;;;33.30;6.55;;;10.30;99.90;;;;;;4915577;29;20040;-79
2024/01/24 09:24:45;;;;;;;35.92;7.55;;;10.30;99.90;;;;;;4914718;29;20045;-79
2024/01/24 09:27:11;;;;;;;28.60;6.68;;;10.30;99.90;;;;;;4910870;29;20051;-78
2024/01/24 09:29:37;;;;;;;30.98;7.10;;;10.30;99.90;;;;;;4899391;29;20045;-78
2024/01/24 09:32:03;;;;;;;27.60;7.10;;;10.40;99.90;;;;;;4913298;29;20364;-79
2024/01/24 09:34:28;;;;;;;35.67;7.22;;;10.40;99.90;;;;;;4916089;29;20071;-78
2024/01/24 09:36:54;;;;;;;33.10;6.97;;;10.50;99.90;;;;;;4926835;29;20047;-79
2024/01/24 09:39:22;;;;;;;31.27;6.90;;;10.50;99.90;;;;;;4914254;29;20052;-79
2024/01/24 09:41:50;;;;;;;31.25;7.80;;;10.50;99.90;;;;;;4917785;29;20052;-78
2024/01/24 09:44:16;;;;;;;34.15;7.00;;;10.60;99.90;;;;;;4886455;29;20466;-79
2024/01/24 09:46:42;;;;;;;36.92;8.25;;;10.60;99.90;;;;;;4902222;29;20036;-79
2024/01/24 09:49:10;;;;;;;29.13;5.85;;;10.60;99.90;;;;;;4918553;29;20046;-78
2024/01/24 09:51:36;;;;;;;33.95;6.72;;;10.50;99.90;;;;;;4917202;29;20098;-78
2024/01/24 09:54:07;;;;;;;33.53;7.55;;;10.50;99.90;;;;;;4918707;29;20054;-78
2024/01/24 09:56:35;;;;;;;33.42;7.95;;;10.50;99.90;;;;;;4922268;29;20421;-79
2024/01/24 09:59:01;;;;;;;;;;;10.50;99.90;;;;;;4920803;29;20062;-78
2024/01/24 10:01:29;;;;;;;33.42;6.55;;;10.40;99.90;;;;;;4889221;29;20437;-78
2024/01/24 10:03:55;;;;;;;;;;;10.40;99.90;;;;;;4886501;29;20040;-78
2024/01/24 10:06:22;;;;;;;30.00;6.97;;;10.40;99.90;;;;;;4916956;29;19923;-78
2024/01/24 10:08:47;;;;;;;33.65;7.43;;;10.50;99.90;;;;;;4915707;29;20048;-78
2024/01/24 10:11:13;;;;;;;38.08;7.18;;;10.60;99.90;;;;;;4916767;29;20455;-78
2024/01/24 10:13:38;;;;;;;34.05;6.70;;;10.50;99.90;;;;;;4910587;29;20131;-78
2024/01/24 10:16:06;;;;;;;34.10;6.88;;;10.60;99.90;;;;;;4900207;29;20111;-78
2024/01/24 10:18:32;;;;;;;27.67;6.38;;;10.60;99.90;;;;;;4919856;29;20043;-79
2024/01/24 10:20:58;;;;;;;32.17;6.82;;;10.60;99.90;;;;;;4885459;29;20063;-78
2024/01/24 10:23:24;;;;;;;30.13;5.88;;;10.60;99.90;;;;;;4914807;29;20107;-78
2024/01/24 10:25:50;;;;;;;25.33;6.28;;;10.60;99.90;;;;;;4919611;29;20044;-78
2024/01/24 10:28:16;;;;;;;26.02;5.93;;;10.70;99.90;;;;;;4916128;29;20052;-78
2024/01/24 10:30:46;;;;;;;29.52;6.55;;;10.70;99.90;;;;;;4902065;29;20067;-78
2024/01/24 10:33:12;;;;;;;28.20;6.30;;;10.70;99.90;;;;;;4908119;29;20044;-77
2024/01/24 10:35:38;;;;;;;29.65;6.38;;;10.70;99.90;;;;;;4912793;29;20040;-78
2024/01/24 10:38:19;;;;;;;32.22;6.75;;;10.70;99.90;;;;;;4899248;29;20051;-78
2024/01/24 10:40:45;;;;;;;28.90;7.05;;;10.90;99.90;;;;;;4915078;29;20100;-79
2024/01/24 10:43:19;;;;;;;34.90;6.55;;;11.00;99.90;;;;;;4923139;29;20043;-78
2024/01/24 10:45:46;;;;;;;32.70;7.75;;;10.90;99.90;;;;;;4915532;29;20403;-79
2024/01/24 10:48:12;;;;;;;28.77;6.90;;;10.90;99.90;;;;;;4903064;29;20060;-79
2024/01/24 10:50:39;;;;;;;30.70;6.47;;;11.00;99.90;;;;;;4913777;29;20049;-78
2024/01/24 10:53:05;;;;;;;33.25;6.22;;;11.00;99.90;;;;;;4909821;29;20056;-79
2024/01/24 10:55:33;;;;;;;26.23;5.65;;;10.90;99.90;;;;;;4884224;29;20039;-78
2024/01/24 10:57:58;;;;;;;30.00;6.53;;;10.90;99.90;;;;;;4897358;29;20059;-78
2024/01/24 11:00:25;;;;;;;30.02;6.47;;;10.90;99.90;;;;;;4898479;29;20643;-78
2024/01/24 11:02:54;;;;;;;28.92;5.90;;;10.90;99.90;;;;;;4907274;29;20093;-78
2024/01/24 11:05:29;;;;;;;27.05;6.00;;;11.00;99.90;;;;;;4913094;29;20055;-79
2024/01/24 11:08:16;;;;;;;25.80;5.32;;;11.00;99.90;;;;;;4918797;29;20064;-78
2024/01/24 11:10:44;;;;;;;24.17;5.85;;;11.00;99.90;;;;;;4897412;29;20111;-79
2024/01/24 11:13:13;;;;;;;27.77;6.28;;;11.00;99.90;;;;;;4898144;29;20051;-79
2024/01/24 11:15:40;;;;;;;28.58;6.30;;;10.90;99.90;;;;;;4899358;29;20058;-78
2024/01/24 11:18:20;;;;;;;28.13;6.47;;;10.90;99.90;;;;;;4910994;29;20044;-78
2024/01/24 11:20:51;;;;;;;33.38;5.93;;;10.90;99.90;;;;;;4895163;29;20122;-78
2024/01/24 11:23:40;;;;;;;25.58;5.78;;;11.00;99.90;;;;;;4896922;29;20414;-78
2024/01/24 11:26:19;;;;;;;29.27;6.50;;;11.00;99.90;;;;;;4877969;29;20103;-78
2024/01/24 11:28:48;;;;;;;23.90;6.00;;;11.00;99.90;;;;;;4884791;29;20043;-78
2024/01/24 11:31:14;;;;;;;30.02;6.03;;;11.10;99.90;;;;;;4897717;29;20044;-78
2024/01/24 11:34:12;;;;;;;32.30;6.25;;;11.00;99.90;;;;;;4912031;29;20036;-78
2024/01/24 11:36:53;;;;;;;26.83;5.25;;;11.10;99.90;;;;;;4908852;29;20067;-78
2024/01/24 11:39:37;;;;;;;25.52;6.72;;;11.00;99.90;;;;;;4895621;29;20051;-78
2024/01/24 11:42:34;;;;;;;27.75;6.60;;;11.10;99.90;;;;;;4882270;29;20072;-78
2024/01/24 11:45:19;;;;;;;23.98;5.57;;;11.00;99.90;;;;;;4913547;29;20067;-78
2024/01/24 11:47:46;;;;;;;21.92;5.30;;;11.10;99.90;;;;;;4914328;29;20050;-79
2024/01/24 11:50:12;;;;;;;27.85;5.65;;;11.10;99.90;;;;;;4912872;29;20116;-79
2024/01/24 11:52:39;;;;;;;30.30;6.15;;;11.10;99.90;;;;;;4914029;29;20075;-78
2024/01/24 11:55:05;;;;;;;22.10;5.43;;;11.10;99.90;;;;;;4912619;29;20040;-78
2024/01/24 11:57:31;;;;;;;28.98;6.10;;;11.20;99.90;;;;;;4896846;29;20044;-78
2024/01/24 11:59:57;;;;;;;28.75;5.65;;;11.20;99.90;;;;;;4913947;29;20052;-77
2024/01/24 12:02:25;;;;;;;31.00;6.35;;;11.20;99.90;;;;;;4914299;29;20060;-78
2024/01/24 12:04:52;;;;;;;25.70;5.47;;;11.40;99.90;;;;;;4915316;29;20048;-78
2024/01/24 12:07:18;;;;;;;23.92;5.85;;;11.40;99.90;;;;;;4913546;29;20040;-77
2024/01/24 12:09:44;;;;;;;29.15;5.75;;;11.40;99.90;;;;;;4913140;29;20036;-77
2024/01/24 12:12:11;;;;;;;19.42;5.35;;;11.40;99.90;;;;;;4895456;29;20040;-78
2024/01/24 12:14:38;;;;;;;27.93;5.70;;;11.30;99.90;;;;;;4894337;29;20379;-78
2024/01/24 12:17:07;;;;;;;27.50;6.07;;;11.20;99.90;;;;;;4914838;29;20044;-81
2024/01/24 12:19:33;;;;;;;27.67;6.25;;;11.10;99.90;;;;;;4906731;29;20099;-79
2024/01/24 12:22:00;;;;;;;28.13;5.40;;;11.10;99.90;;;;;;4914875;29;20455;-78
2024/01/24 12:24:26;;;;;;;27.40;5.82;;;11.20;99.90;;;;;;4900354;29;20111;-77
2024/01/24 12:26:52;;;;;;;22.13;5.68;;;11.20;99.90;;;;;;4911782;29;20122;-78
2024/01/24 12:29:18;;;;;;;32.42;6.95;;;11.20;99.90;;;;;;4913129;29;20084;-77
2024/01/24 12:31:45;;;;;;;27.38;5.07;;;11.10;99.90;;;;;;4913985;29;20040;-79
2024/01/24 12:34:14;;;;;;;24.83;5.07;;;11.20;99.90;;;;;;4892795;29;20554;-79
2024/01/24 12:36:46;;;;;;;24.75;6.05;;;11.20;99.90;;;;;;4915223;29;20040;-79
2024/01/24 12:39:11;;;;;;;24.13;5.38;;;11.20;99.90;;;;;;4914714;29;20040;-79
2024/01/24 12:41:40;;;;;;;24.73;5.60;;;11.10;99.90;;;;;;4897265;29;20059;-79
2024/01/24 12:44:09;;;;;;;28.88;5.43;;;11.20;99.90;;;;;;4897580;29;20391;-79
2024/01/24 12:46:35;;;;;;;32.72;6.80;;;11.10;99.90;;;;;;4913912;29;20044;-79
2024/01/24 12:49:01;;;;;;;24.65;5.50;;;10.70;99.90;;;;;;4881267;29;20078;-79
2024/01/24 12:51:26;;;;;;;26.23;5.28;;;11.10;99.90;;;;;;4881840;29;20076;-78